sensor_id;sensor_type;location;lat;lon;timestamp;pressure;altitude;pressure_sealevel;temperature;humidity
68179;BME280;69812;42.632;23.440;2023-06-22T00:01:50;95522.22;;;14.18;97.64
68179;BME280;69812;42.632;23.440;2023-06-22T00:04:15;95512.09;;;14.07;98.14
68179;BME280;69812;42.632;23.440;2023-06-22T00:06:44;95510.16;;;14.09;98.27
68179;BME280;69812;42.632;23.440;2023-06-22T00:09:09;95513.25;;;13.95;98.87
68179;BME280;69812;42.632;23.440;2023-06-22T00:11:36;95504.66;;;14.04;99.26
68179;BME280;69812;42.632;23.440;2023-06-22T00:14:02;95502.44;;;14.09;98.99
68179;BME280;69812;42.632;23.440;2023-06-22T00:16:27;95490.94;;;14.04;99.03
68179;BME280;69812;42.632;23.440;2023-06-22T00:18:53;95501.78;;;14.25;99.23
68179;BME280;69812;42.632;23.440;2023-06-22T00:21:18;95502.44;;;14.09;98.79
68179;BME280;69812;42.632;23.440;2023-06-22T00:23:45;95504.66;;;14.04;99.23
68179;BME280;69812;42.632;23.440;2023-06-22T00:26:11;95506.19;;;13.97;99.68
68179;BME280;69812;42.632;23.440;2023-06-22T00:28:36;95495.34;;;13.93;100.00
68179;BME280;69812;42.632;23.440;2023-06-22T00:31:02;95491.16;;;14.10;99.91
68179;BME280;69812;42.632;23.440;2023-06-22T00:33:27;95482.22;;;14.05;99.54
68179;BME280;69812;42.632;23.440;2023-06-22T00:35:53;95489.97;;;14.05;99.64
68179;BME280;69812;42.632;23.440;2023-06-22T00:38:21;95487.84;;;14.18;100.00
68179;BME280;69812;42.632;23.440;2023-06-22T00:40:46;95486.53;;;14.32;99.86
68179;BME280;69812;42.632;23.440;2023-06-22T00:43:12;95490.00;;;14.23;100.00
68179;BME280;69812;42.632;23.440;2023-06-22T00:45:38;95491.38;;;14.17;100.00
68179;BME280;69812;42.632;23.440;2023-06-22T00:48:06;95487.09;;;14.08;100.00
68179;BME280;69812;42.632;23.440;2023-06-22T00:50:33;95485.78;;;14.04;100.00
68179;BME280;69812;42.632;23.440;2023-06-22T00:53:02;95484.34;;;13.91;100.00
68179;BME280;69812;42.632;23.440;2023-06-22T00:55:37;95489.66;;;13.90;100.00
68179;BME280;69812;42.632;23.440;2023-06-22T00:58:05;95491.66;;;13.96;100.00
68179;BME280;69812;42.632;23.440;2023-06-22T01:00:35;95497.00;;;13.85;100.00
68179;BME280;69812;42.632;23.440;2023-06-22T01:03:01;95495.41;;;13.84;100.00
68179;BME280;69812;42.632;23.440;2023-06-22T01:05:27;95481.44;;;13.76;100.00
68179;BME280;69812;42.632;23.440;2023-06-22T01:08:06;95486.34;;;13.97;99.85
68179;BME280;69812;42.632;23.440;2023-06-22T01:10:36;95492.50;;;14.14;99.53
68179;BME280;69812;42.632;23.440;2023-06-22T01:13:10;95492.41;;;14.24;99.23
68179;BME280;69812;42.632;23.440;2023-06-22T01:15:45;95488.94;;;14.15;99.81
68179;BME280;69812;42.632;23.440;2023-06-22T01:18:18;95475.72;;;13.83;100.00
68179;BME280;69812;42.632;23.440;2023-06-22T01:20:44;95505.72;;;13.84;100.00
68179;BME280;69812;42.632;23.440;2023-06-22T01:26:35;95505.31;;;13.79;100.00
68179;BME280;69812;42.632;23.440;2023-06-22T01:29:06;95508.25;;;13.66;100.00
68179;BME280;69812;42.632;23.440;2023-06-22T01:31:33;95504.00;;;13.74;100.00
68179;BME280;69812;42.632;23.440;2023-06-22T01:34:03;95513.41;;;13.66;100.00
68179;BME280;69812;42.632;23.440;2023-06-22T01:36:31;95503.69;;;13.50;100.00
68179;BME280;69812;42.632;23.440;2023-06-22T01:38:58;95513.44;;;13.56;100.00
68179;BME280;69812;42.632;23.440;2023-06-22T01:41:28;95504.06;;;13.55;100.00
68179;BME280;69812;42.632;23.440;2023-06-22T01:43:56;95495.59;;;13.45;100.00
68179;BME280;69812;42.632;23.440;2023-06-22T01:46:25;95508.06;;;13.49;100.00
68179;BME280;69812;42.632;23.440;2023-06-22T01:48:51;95510.53;;;13.41;100.00
68179;BME280;69812;42.632;23.440;2023-06-22T01:51:20;95523.84;;;13.37;100.00
68179;BME280;69812;42.632;23.440;2023-06-22T01:53:45;95515.91;;;13.58;100.00
68179;BME280;69812;42.632;23.440;2023-06-22T01:56:12;95506.19;;;13.69;100.00
68179;BME280;69812;42.632;23.440;2023-06-22T01:59:05;95514.31;;;13.74;100.00
68179;BME280;69812;42.632;23.440;2023-06-22T02:01:43;95516.28;;;13.63;100.00
68179;BME280;69812;42.632;23.440;2023-06-22T02:04:13;95523.00;;;13.73;100.00
68179;BME280;69812;42.632;23.440;2023-06-22T02:06:45;95513.72;;;13.53;99.75
68179;BME280;69812;42.632;23.440;2023-06-22T02:09:17;95528.13;;;13.46;99.28
68179;BME280;69812;42.632;23.440;2023-06-22T02:11:44;95526.13;;;13.40;98.80
68179;BME280;69812;42.632;23.440;2023-06-22T02:14:15;95537.78;;;13.44;98.13
68179;BME280;69812;42.632;23.440;2023-06-22T02:16:41;95541.84;;;13.46;98.25
68179;BME280;69812;42.632;23.440;2023-06-22T02:19:09;95526.41;;;13.37;98.87
68179;BME280;69812;42.632;23.440;2023-06-22T02:21:35;95520.59;;;13.34;99.40
68179;BME280;69812;42.632;23.440;2023-06-22T02:24:00;95522.19;;;13.35;99.08
68179;BME280;69812;42.632;23.440;2023-06-22T02:26:29;95504.31;;;13.34;99.27
68179;BME280;69812;42.632;23.440;2023-06-22T02:28:54;95518.50;;;13.48;99.69
68179;BME280;69812;42.632;23.440;2023-06-22T02:31:20;95521.97;;;13.66;100.00
68179;BME280;69812;42.632;23.440;2023-06-22T02:33:45;95513.38;;;13.75;100.00
68179;BME280;69812;42.632;23.440;2023-06-22T02:36:11;95516.41;;;13.89;100.00
68179;BME280;69812;42.632;23.440;2023-06-22T02:38:38;95517.34;;;13.88;100.00
68179;BME280;69812;42.632;23.440;2023-06-22T02:41:04;95517.88;;;13.91;100.00
68179;BME280;69812;42.632;23.440;2023-06-22T02:43:29;95522.78;;;13.94;100.00
68179;BME280;69812;42.632;23.440;2023-06-22T02:45:55;95522.00;;;13.84;100.00
68179;BME280;69812;42.632;23.440;2023-06-22T02:48:20;95511.69;;;13.56;100.00
68179;BME280;69812;42.632;23.440;2023-06-22T02:50:46;95508.19;;;13.48;100.00
68179;BME280;69812;42.632;23.440;2023-06-22T02:53:11;95510.63;;;13.49;100.00
68179;BME280;69812;42.632;23.440;2023-06-22T02:55:39;95524.09;;;13.43;100.00
68179;BME280;69812;42.632;23.440;2023-06-22T02:58:05;95538.84;;;13.51;100.00
68179;BME280;69812;42.632;23.440;2023-06-22T03:00:32;95542.44;;;13.68;100.00
68179;BME280;69812;42.632;23.440;2023-06-22T03:02:58;95535.09;;;13.73;100.00
68179;BME280;69812;42.632;23.440;2023-06-22T03:05:23;95541.44;;;13.79;100.00
68179;BME280;69812;42.632;23.440;2023-06-22T03:07:49;95548.84;;;13.91;99.30
68179;BME280;69812;42.632;23.440;2023-06-22T03:10:15;95555.78;;;13.91;99.12
68179;BME280;69812;42.632;23.440;2023-06-22T03:12:43;95550.16;;;14.05;98.51
68179;BME280;69812;42.632;23.440;2023-06-22T03:15:10;95541.91;;;14.20;97.40
68179;BME280;69812;42.632;23.440;2023-06-22T03:17:37;95544.28;;;14.31;96.26
68179;BME280;69812;42.632;23.440;2023-06-22T03:20:04;95539.41;;;14.28;96.53
68179;BME280;69812;42.632;23.440;2023-06-22T03:22:40;95548.59;;;14.40;96.30
68179;BME280;69812;42.632;23.440;2023-06-22T03:25:06;95552.09;;;14.39;97.18
68179;BME280;69812;42.632;23.440;2023-06-22T03:27:37;95551.22;;;14.48;98.02
68179;BME280;69812;42.632;23.440;2023-06-22T03:30:03;95552.75;;;14.69;98.39
68179;BME280;69812;42.632;23.440;2023-06-22T03:32:29;95561.13;;;14.89;98.39
68179;BME280;69812;42.632;23.440;2023-06-22T03:34:54;95554.94;;;14.99;98.63
68179;BME280;69812;42.632;23.440;2023-06-22T03:37:27;95554.75;;;15.19;98.63
68179;BME280;69812;42.632;23.440;2023-06-22T03:39:52;95548.19;;;15.33;98.30
68179;BME280;69812;42.632;23.440;2023-06-22T03:42:18;95565.34;;;15.60;97.55
68179;BME280;69812;42.632;23.440;2023-06-22T03:44:43;95553.16;;;15.78;94.99
68179;BME280;69812;42.632;23.440;2023-06-22T03:47:09;95568.19;;;16.17;93.09
68179;BME280;69812;42.632;23.440;2023-06-22T03:49:35;95558.97;;;16.98;94.66
68179;BME280;69812;42.632;23.440;2023-06-22T03:52:01;95565.88;;;18.42;92.77
68179;BME280;69812;42.632;23.440;2023-06-22T03:54:28;95572.06;;;19.72;84.90
68179;BME280;69812;42.632;23.440;2023-06-22T03:56:53;95571.13;;;20.82;81.09
68179;BME280;69812;42.632;23.440;2023-06-22T03:59:19;95568.09;;;21.78;74.61
68179;BME280;69812;42.632;23.440;2023-06-22T04:01:44;95584.75;;;22.60;62.71
68179;BME280;69812;42.632;23.440;2023-06-22T04:04:10;95578.66;;;23.34;58.89
68179;BME280;69812;42.632;23.440;2023-06-22T04:06:35;95573.72;;;23.97;56.45
68179;BME280;69812;42.632;23.440;2023-06-22T04:09:00;95574.16;;;25.16;53.09
68179;BME280;69812;42.632;23.440;2023-06-22T04:11:26;95580.88;;;26.25;49.49
68179;BME280;69812;42.632;23.440;2023-06-22T04:13:51;95592.47;;;26.35;48.72
68179;BME280;69812;42.632;23.440;2023-06-22T04:16:17;95591.31;;;25.94;49.48
68179;BME280;69812;42.632;23.440;2023-06-22T04:18:44;95579.66;;;25.40;50.96
68179;BME280;69812;42.632;23.440;2023-06-22T04:21:10;95576.97;;;25.47;51.20
68179;BME280;69812;42.632;23.440;2023-06-22T04:23:35;95578.06;;;26.56;48.75
68179;BME280;69812;42.632;23.440;2023-06-22T04:26:03;95569.50;;;27.57;45.52
68179;BME280;69812;42.632;23.440;2023-06-22T04:28:29;95568.75;;;28.20;44.27
68179;BME280;69812;42.632;23.440;2023-06-22T04:30:54;95555.28;;;28.74;42.18
68179;BME280;69812;42.632;23.440;2023-06-22T04:33:23;95557.91;;;29.37;40.65
68179;BME280;69812;42.632;23.440;2023-06-22T04:35:48;95548.63;;;30.12;39.78
68179;BME280;69812;42.632;23.440;2023-06-22T04:38:14;95546.53;;;30.85;38.20
68179;BME280;69812;42.632;23.440;2023-06-22T04:40:40;95534.16;;;31.23;36.60
68179;BME280;69812;42.632;23.440;2023-06-22T04:43:23;95542.16;;;30.69;37.31
68179;BME280;69812;42.632;23.440;2023-06-22T04:45:49;95550.06;;;30.42;37.92
68179;BME280;69812;42.632;23.440;2023-06-22T04:48:17;95534.38;;;29.91;39.17
68179;BME280;69812;42.632;23.440;2023-06-22T04:50:42;95546.63;;;30.41;38.13
68179;BME280;69812;42.632;23.440;2023-06-22T04:53:09;95535.81;;;31.35;35.69
68179;BME280;69812;42.632;23.440;2023-06-22T04:55:39;95527.97;;;32.56;33.88
68179;BME280;69812;42.632;23.440;2023-06-22T04:58:07;95540.28;;;33.23;32.28
68179;BME280;69812;42.632;23.440;2023-06-22T05:00:32;95539.66;;;33.83;31.09
68179;BME280;69812;42.632;23.440;2023-06-22T05:03:01;95548.16;;;33.95;31.38
68179;BME280;69812;42.632;23.440;2023-06-22T05:05:29;95558.13;;;32.24;34.37
68179;BME280;69812;42.632;23.440;2023-06-22T05:07:56;95564.66;;;32.01;34.98
68179;BME280;69812;42.632;23.440;2023-06-22T05:10:27;95558.81;;;32.72;32.79
68179;BME280;69812;42.632;23.440;2023-06-22T05:12:55;95570.56;;;29.52;39.07
68179;BME280;69812;42.632;23.440;2023-06-22T05:15:22;95572.97;;;28.74;39.87
68179;BME280;69812;42.632;23.440;2023-06-22T05:17:51;95564.22;;;28.73;41.34
68179;BME280;69812;42.632;23.440;2023-06-22T05:20:17;95562.06;;;28.70;40.87
68179;BME280;69812;42.632;23.440;2023-06-22T05:22:43;95570.56;;;30.29;37.62
68179;BME280;69812;42.632;23.440;2023-06-22T05:25:14;95564.25;;;32.29;34.41
68179;BME280;69812;42.632;23.440;2023-06-22T05:27:39;95580.69;;;33.15;31.74
68179;BME280;69812;42.632;23.440;2023-06-22T05:30:27;95581.09;;;32.66;32.68
68179;BME280;69812;42.632;23.440;2023-06-22T05:32:55;95578.38;;;34.90;30.12
68179;BME280;69812;42.632;23.440;2023-06-22T05:35:20;95577.88;;;35.56;28.41
68179;BME280;69812;42.632;23.440;2023-06-22T05:37:45;95581.59;;;34.87;29.46
68179;BME280;69812;42.632;23.440;2023-06-22T05:40:11;95574.88;;;34.45;30.04
68179;BME280;69812;42.632;23.440;2023-06-22T05:42:37;95590.25;;;34.63;30.77
68179;BME280;69812;42.632;23.440;2023-06-22T05:45:03;95598.78;;;33.13;32.21
68179;BME280;69812;42.632;23.440;2023-06-22T05:47:28;95599.75;;;32.81;33.37
68179;BME280;69812;42.632;23.440;2023-06-22T05:49:54;95599.44;;;37.05;27.49
68179;BME280;69812;42.632;23.440;2023-06-22T05:52:19;95595.50;;;38.28;24.84
68179;BME280;69812;42.632;23.440;2023-06-22T05:54:44;95597.50;;;39.99;22.72
68179;BME280;69812;42.632;23.440;2023-06-22T05:57:10;95599.50;;;41.17;21.43
68179;BME280;69812;42.632;23.440;2023-06-22T05:59:35;95589.19;;;42.31;19.97
68179;BME280;69812;42.632;23.440;2023-06-22T06:02:00;95592.28;;;43.68;19.25
68179;BME280;69812;42.632;23.440;2023-06-22T06:04:25;95586.22;;;45.22;17.64
68179;BME280;69812;42.632;23.440;2023-06-22T06:06:51;95580.44;;;44.18;17.91
68179;BME280;69812;42.632;23.440;2023-06-22T06:09:17;95585.69;;;44.39;17.91
68179;BME280;69812;42.632;23.440;2023-06-22T06:11:42;95579.63;;;47.18;15.81
68179;BME280;69812;42.632;23.440;2023-06-22T06:14:08;95580.13;;;48.65;14.44
68179;BME280;69812;42.632;23.440;2023-06-22T06:16:35;95581.31;;;49.32;13.99
68179;BME280;69812;42.632;23.440;2023-06-22T06:19:00;95565.53;;;49.48;14.35
68179;BME280;69812;42.632;23.440;2023-06-22T06:21:26;95579.25;;;50.52;13.13
68179;BME280;69812;42.632;23.440;2023-06-22T06:23:51;95564.81;;;50.51;12.55
68179;BME280;69812;42.632;23.440;2023-06-22T06:26:18;95559.00;;;50.64;13.08
68179;BME280;69812;42.632;23.440;2023-06-22T06:28:48;95566.03;;;51.78;12.64
68179;BME280;69812;42.632;23.440;2023-06-22T06:31:13;95569.09;;;52.33;12.19
68179;BME280;69812;42.632;23.440;2023-06-22T06:33:42;95566.75;;;52.46;11.18
68179;BME280;69812;42.632;23.440;2023-06-22T06:36:07;95565.63;;;53.32;10.95
68179;BME280;69812;42.632;23.440;2023-06-22T06:38:33;95554.31;;;53.82;10.07
68179;BME280;69812;42.632;23.440;2023-06-22T06:40:59;95554.75;;;53.73;10.04
68179;BME280;69812;42.632;23.440;2023-06-22T06:43:24;95562.28;;;54.52;9.18
68179;BME280;69812;42.632;23.440;2023-06-22T06:45:50;95555.16;;;54.93;9.74
68179;BME280;69812;42.632;23.440;2023-06-22T06:48:16;95548.25;;;55.12;10.04
68179;BME280;69812;42.632;23.440;2023-06-22T06:50:45;95541.19;;;55.38;9.08
68179;BME280;69812;42.632;23.440;2023-06-22T06:53:11;95542.66;;;56.17;8.38
68179;BME280;69812;42.632;23.440;2023-06-22T06:55:36;95557.13;;;57.90;7.85
68179;BME280;69812;42.632;23.440;2023-06-22T06:58:02;95540.22;;;58.63;7.69
68179;BME280;69812;42.632;23.440;2023-06-22T07:00:29;95531.41;;;54.41;9.58
68179;BME280;69812;42.632;23.440;2023-06-22T07:02:54;95529.38;;;52.99;10.62
68179;BME280;69812;42.632;23.440;2023-06-22T07:05:20;95517.78;;;51.01;11.28
68179;BME280;69812;42.632;23.440;2023-06-22T07:07:50;95522.97;;;53.27;10.25
68179;BME280;69812;42.632;23.440;2023-06-22T07:10:16;95516.97;;;56.04;9.10
68179;BME280;69812;42.632;23.440;2023-06-22T07:12:41;95510.13;;;55.88;8.81
68179;BME280;69812;42.632;23.440;2023-06-22T07:15:08;95527.16;;;57.23;7.88
68179;BME280;69812;42.632;23.440;2023-06-22T07:17:34;95520.31;;;56.35;8.36
68179;BME280;69812;42.632;23.440;2023-06-22T07:20:01;95516.06;;;53.01;10.26
68179;BME280;69812;42.632;23.440;2023-06-22T07:22:26;95517.34;;;52.79;11.69
68179;BME280;69812;42.632;23.440;2023-06-22T07:24:51;95511.25;;;55.44;9.43
68179;BME280;69812;42.632;23.440;2023-06-22T07:27:17;95519.13;;;56.56;8.79
68179;BME280;69812;42.632;23.440;2023-06-22T07:29:44;95522.81;;;58.92;7.28
68179;BME280;69812;42.632;23.440;2023-06-22T07:32:10;95518.50;;;59.16;7.45
68179;BME280;69812;42.632;23.440;2023-06-22T07:34:36;95507.53;;;59.99;7.09
68179;BME280;69812;42.632;23.440;2023-06-22T07:37:01;95515.94;;;59.95;7.44
68179;BME280;69812;42.632;23.440;2023-06-22T07:39:26;95505.47;;;58.20;7.70
68179;BME280;69812;42.632;23.440;2023-06-22T07:41:53;95510.94;;;59.55;7.13
68179;BME280;69812;42.632;23.440;2023-06-22T07:44:18;95518.75;;;60.17;6.72
68179;BME280;69812;42.632;23.440;2023-06-22T07:46:44;95511.28;;;59.06;7.05
68179;BME280;69812;42.632;23.440;2023-06-22T07:49:09;95505.38;;;57.29;7.91
68179;BME280;69812;42.632;23.440;2023-06-22T07:51:35;95495.28;;;54.43;10.13
68179;BME280;69812;42.632;23.440;2023-06-22T07:54:00;95489.69;;;55.66;9.38
68179;BME280;69812;42.632;23.440;2023-06-22T07:56:28;95506.31;;;57.22;8.31
68179;BME280;69812;42.632;23.440;2023-06-22T07:58:53;95503.94;;;56.68;7.88
68179;BME280;69812;42.632;23.440;2023-06-22T08:01:18;95491.22;;;56.54;8.72
68179;BME280;69812;42.632;23.440;2023-06-22T08:03:48;95491.03;;;57.83;7.78
68179;BME280;69812;42.632;23.440;2023-06-22T08:06:13;95492.06;;;57.07;8.14
68179;BME280;69812;42.632;23.440;2023-06-22T08:08:39;95482.25;;;56.50;8.40
68179;BME280;69812;42.632;23.440;2023-06-22T08:11:05;95472.78;;;56.31;8.46
68179;BME280;69812;42.632;23.440;2023-06-22T08:13:33;95478.84;;;56.62;8.79
68179;BME280;69812;42.632;23.440;2023-06-22T08:15:58;95480.00;;;55.57;9.08
68179;BME280;69812;42.632;23.440;2023-06-22T08:18:24;95478.56;;;53.43;10.17
68179;BME280;69812;42.632;23.440;2023-06-22T08:20:52;95470.66;;;49.65;12.77
68179;BME280;69812;42.632;23.440;2023-06-22T08:23:17;95463.28;;;45.59;15.98
68179;BME280;69812;42.632;23.440;2023-06-22T08:25:43;95453.81;;;44.77;16.45
68179;BME280;69812;42.632;23.440;2023-06-22T08:28:08;95448.91;;;42.61;19.44
68179;BME280;69812;42.632;23.440;2023-06-22T08:30:36;95442.75;;;44.41;17.91
68179;BME280;69812;42.632;23.440;2023-06-22T08:33:02;95448.75;;;45.03;16.83
68179;BME280;69812;42.632;23.440;2023-06-22T08:35:27;95441.75;;;46.33;14.96
68179;BME280;69812;42.632;23.440;2023-06-22T08:37:54;95446.63;;;47.05;14.78
68179;BME280;69812;42.632;23.440;2023-06-22T08:40:21;95446.47;;;48.17;13.63
68179;BME280;69812;42.632;23.440;2023-06-22T08:42:47;95460.06;;;47.41;14.68
68179;BME280;69812;42.632;23.440;2023-06-22T08:45:13;95457.34;;;51.39;11.86
68179;BME280;69812;42.632;23.440;2023-06-22T08:47:41;95456.13;;;52.04;11.13
68179;BME280;69812;42.632;23.440;2023-06-22T08:50:10;95460.38;;;53.19;10.77
68179;BME280;69812;42.632;23.440;2023-06-22T08:52:37;95455.03;;;49.62;12.35
68179;BME280;69812;42.632;23.440;2023-06-22T08:55:05;95451.53;;;46.57;15.08
68179;BME280;69812;42.632;23.440;2023-06-22T08:57:31;95451.09;;;41.96;18.04
68179;BME280;69812;42.632;23.440;2023-06-22T08:59:57;95449.84;;;40.03;20.62
68179;BME280;69812;42.632;23.440;2023-06-22T09:02:33;95442.34;;;37.52;24.14
68179;BME280;69812;42.632;23.440;2023-06-22T09:04:58;95443.13;;;34.27;27.86
68179;BME280;69812;42.632;23.440;2023-06-22T09:07:24;95452.81;;;33.97;28.96
68179;BME280;69812;42.632;23.440;2023-06-22T09:09:50;95447.06;;;33.80;31.49
68179;BME280;69812;42.632;23.440;2023-06-22T09:12:16;95448.13;;;33.73;29.85
68179;BME280;69812;42.632;23.440;2023-06-22T09:14:41;95450.66;;;33.19;30.05
68179;BME280;69812;42.632;23.440;2023-06-22T09:17:07;95444.47;;;32.26;30.63
68179;BME280;69812;42.632;23.440;2023-06-22T09:19:32;95442.63;;;32.21;30.57
68179;BME280;69812;42.632;23.440;2023-06-22T09:21:58;95448.56;;;31.76;32.21
68179;BME280;69812;42.632;23.440;2023-06-22T09:24:23;95455.13;;;31.63;35.63
68179;BME280;69812;42.632;23.440;2023-06-22T09:26:49;95451.69;;;31.67;34.73
68179;BME280;69812;42.632;23.440;2023-06-22T09:29:15;95441.00;;;32.10;33.46
68179;BME280;69812;42.632;23.440;2023-06-22T09:31:40;95441.78;;;32.16;33.10
68179;BME280;69812;42.632;23.440;2023-06-22T09:34:06;95442.03;;;32.09;35.23
68179;BME280;69812;42.632;23.440;2023-06-22T09:36:31;95448.47;;;32.39;33.61
68179;BME280;69812;42.632;23.440;2023-06-22T09:38:56;95447.41;;;32.34;32.91
68179;BME280;69812;42.632;23.440;2023-06-22T09:41:24;95456.75;;;31.69;33.94
68179;BME280;69812;42.632;23.440;2023-06-22T09:43:49;95456.22;;;31.72;32.86
68179;BME280;69812;42.632;23.440;2023-06-22T09:46:15;95453.25;;;31.58;33.78
68179;BME280;69812;42.632;23.440;2023-06-22T09:48:40;95453.25;;;31.58;34.05
68179;BME280;69812;42.632;23.440;2023-06-22T09:51:08;95453.09;;;31.38;33.71
68179;BME280;69812;42.632;23.440;2023-06-22T09:53:36;95447.88;;;30.19;33.29
68179;BME280;69812;42.632;23.440;2023-06-22T09:56:03;95454.19;;;30.13;34.52
68179;BME280;69812;42.632;23.440;2023-06-22T09:58:28;95439.63;;;30.15;36.06
68179;BME280;69812;42.632;23.440;2023-06-22T10:00:56;95439.53;;;30.59;33.90
68179;BME280;69812;42.632;23.440;2023-06-22T10:03:22;95430.63;;;31.03;34.33
68179;BME280;69812;42.632;23.440;2023-06-22T10:05:48;95439.31;;;31.36;33.20
68179;BME280;69812;42.632;23.440;2023-06-22T10:08:13;95437.03;;;31.12;32.24
68179;BME280;69812;42.632;23.440;2023-06-22T10:10:38;95433.09;;;31.15;33.02
68179;BME280;69812;42.632;23.440;2023-06-22T10:13:08;95433.31;;;31.08;32.76
68179;BME280;69812;42.632;23.440;2023-06-22T10:15:35;95423.75;;;31.07;36.00
68179;BME280;69812;42.632;23.440;2023-06-22T10:18:03;95424.44;;;30.92;35.79
68179;BME280;69812;42.632;23.440;2023-06-22T10:20:29;95424.31;;;30.77;33.95
68179;BME280;69812;42.632;23.440;2023-06-22T10:22:57;95426.59;;;30.63;36.17
68179;BME280;69812;42.632;23.440;2023-06-22T10:25:22;95418.78;;;30.78;34.51
68179;BME280;69812;42.632;23.440;2023-06-22T10:27:48;95415.34;;;31.20;33.50
68179;BME280;69812;42.632;23.440;2023-06-22T10:30:16;95428.59;;;31.20;36.46
68179;BME280;69812;42.632;23.440;2023-06-22T10:32:43;95411.31;;;31.55;33.19
68179;BME280;69812;42.632;23.440;2023-06-22T10:35:09;95418.19;;;31.51;32.45
68179;BME280;69812;42.632;23.440;2023-06-22T10:37:36;95408.88;;;31.43;32.14
68179;BME280;69812;42.632;23.440;2023-06-22T10:40:01;95419.00;;;31.51;31.65
68179;BME280;69812;42.632;23.440;2023-06-22T10:42:26;95422.44;;;31.09;35.29
68179;BME280;69812;42.632;23.440;2023-06-22T10:44:52;95408.31;;;31.41;32.57
68179;BME280;69812;42.632;23.440;2023-06-22T10:47:17;95406.94;;;31.28;32.61
68179;BME280;69812;42.632;23.440;2023-06-22T10:49:45;95410.56;;;31.17;31.52
68179;BME280;69812;42.632;23.440;2023-06-22T10:52:10;95403.00;;;31.36;34.52
68179;BME280;69812;42.632;23.440;2023-06-22T10:54:37;95404.47;;;31.64;31.80
68179;BME280;69812;42.632;23.440;2023-06-22T10:57:05;95399.91;;;31.49;31.52
68179;BME280;69812;42.632;23.440;2023-06-22T10:59:31;95400.84;;;31.86;31.65
68179;BME280;69812;42.632;23.440;2023-06-22T11:01:59;95402.41;;;31.92;32.91
68179;BME280;69812;42.632;23.440;2023-06-22T11:04:25;95407.72;;;31.87;31.98
68179;BME280;69812;42.632;23.440;2023-06-22T11:06:52;95399.16;;;31.64;33.56
68179;BME280;69812;42.632;23.440;2023-06-22T11:09:18;95399.50;;;31.93;32.88
68179;BME280;69812;42.632;23.440;2023-06-22T11:11:52;95404.16;;;32.54;32.18
68179;BME280;69812;42.632;23.440;2023-06-22T11:14:21;95399.84;;;33.05;31.17
68179;BME280;69812;42.632;23.440;2023-06-22T11:16:49;95399.56;;;33.32;29.68
68179;BME280;69812;42.632;23.440;2023-06-22T11:19:14;95396.13;;;33.96;28.75
68179;BME280;69812;42.632;23.440;2023-06-22T11:21:40;95393.97;;;34.43;28.11
68179;BME280;69812;42.632;23.440;2023-06-22T11:24:05;95393.63;;;34.55;27.84
68179;BME280;69812;42.632;23.440;2023-06-22T11:26:31;95396.22;;;34.26;28.45
68179;BME280;69812;42.632;23.440;2023-06-22T11:29:03;95382.03;;;33.91;29.01
68179;BME280;69812;42.632;23.440;2023-06-22T11:31:32;95391.88;;;33.20;30.03
68179;BME280;69812;42.632;23.440;2023-06-22T11:33:57;95388.06;;;33.52;30.63
68179;BME280;69812;42.632;23.440;2023-06-22T11:36:25;95389.19;;;33.95;30.11
68179;BME280;69812;42.632;23.440;2023-06-22T11:38:51;95383.19;;;33.80;30.45
68179;BME280;69812;42.632;23.440;2023-06-22T11:41:16;95373.00;;;33.92;30.35
68179;BME280;69812;42.632;23.440;2023-06-22T11:43:44;95371.34;;;34.01;30.41
68179;BME280;69812;42.632;23.440;2023-06-22T11:46:12;95371.41;;;34.30;28.99
68179;BME280;69812;42.632;23.440;2023-06-22T11:48:37;95365.47;;;35.02;27.35
68179;BME280;69812;42.632;23.440;2023-06-22T11:51:05;95364.88;;;35.10;28.22
68179;BME280;69812;42.632;23.440;2023-06-22T11:53:31;95367.94;;;34.98;27.48
68179;BME280;69812;42.632;23.440;2023-06-22T11:55:57;95362.00;;;35.55;25.70
68179;BME280;69812;42.632;23.440;2023-06-22T11:58:22;95363.66;;;34.97;27.47
68179;BME280;69812;42.632;23.440;2023-06-22T12:00:48;95363.66;;;35.27;26.77
68179;BME280;69812;42.632;23.440;2023-06-22T12:03:13;95357.66;;;35.16;27.33
68179;BME280;69812;42.632;23.440;2023-06-22T12:05:40;95362.78;;;35.07;26.97
68179;BME280;69812;42.632;23.440;2023-06-22T12:08:05;95385.75;;;33.95;31.04
68179;BME280;69812;42.632;23.440;2023-06-22T12:10:33;95392.34;;;28.12;50.16
68179;BME280;69812;42.632;23.440;2023-06-22T12:13:04;95374.66;;;24.34;60.60
68179;BME280;69812;42.632;23.440;2023-06-22T12:15:29;95383.75;;;23.03;71.50
68179;BME280;69812;42.632;23.440;2023-06-22T12:17:55;95377.72;;;21.54;80.86
68179;BME280;69812;42.632;23.440;2023-06-22T12:20:22;95392.31;;;21.07;86.43
68179;BME280;69812;42.632;23.440;2023-06-22T12:22:48;95393.41;;;20.85;88.85
68179;BME280;69812;42.632;23.440;2023-06-22T12:25:20;95425.63;;;20.56;89.31
68179;BME280;69812;42.632;23.440;2023-06-22T12:27:45;95424.56;;;20.22;93.05
68179;BME280;69812;42.632;23.440;2023-06-22T12:30:10;95423.00;;;20.27;96.21
68179;BME280;69812;42.632;23.440;2023-06-22T12:32:36;95435.53;;;20.39;99.30
68179;BME280;69812;42.632;23.440;2023-06-22T12:35:01;95440.16;;;20.58;100.00
68179;BME280;69812;42.632;23.440;2023-06-22T12:37:27;95439.16;;;20.87;100.00
68179;BME280;69812;42.632;23.440;2023-06-22T12:39:54;95441.44;;;20.69;100.00
68179;BME280;69812;42.632;23.440;2023-06-22T12:42:19;95442.81;;;20.43;100.00
68179;BME280;69812;42.632;23.440;2023-06-22T12:44:46;95442.59;;;20.45;100.00
68179;BME280;69812;42.632;23.440;2023-06-22T12:47:11;95434.41;;;20.05;100.00
68179;BME280;69812;42.632;23.440;2023-06-22T12:49:37;95444.97;;;19.82;100.00
68179;BME280;69812;42.632;23.440;2023-06-22T12:52:03;95457.59;;;20.00;100.00